createdAt,value
2023-05-05T02:24:25.488Z,74.91
2023-05-05T02:26:54.069Z,77.58
2023-05-05T02:29:31.235Z,78.51
2023-05-05T02:32:08.888Z,79.87
2023-05-05T02:34:42.096Z,79.95
2023-05-05T02:37:26.240Z,80.54
2023-05-05T02:40:48.339Z,80.28
2023-05-05T02:43:41.275Z,81.55
2023-05-05T02:52:46.282Z,82.35
2023-05-05T02:55:15.603Z,82.86
2023-05-05T02:57:55.126Z,82.82
2023-05-05T03:00:51.775Z,83.17
2023-05-05T03:06:39.480Z,83.22
2023-05-05T03:09:12.410Z,83.50
2023-05-05T03:11:59.791Z,83.59
2023-05-05T03:14:32.821Z,83.82
2023-05-05T03:17:26.595Z,83.83
2023-05-05T03:19:54.833Z,83.70
2023-05-05T03:22:22.000Z,83.76
2023-05-05T03:31:01.788Z,83.84
2023-05-05T03:39:29.136Z,83.22
2023-05-05T03:48:06.637Z,83.05
2023-05-05T03:53:50.996Z,83.05
2023-05-05T03:57:09.244Z,83.17
2023-05-05T04:19:12.051Z,83.62
2023-05-05T04:24:56.631Z,84.16
2023-05-05T04:31:26.696Z,84.02
2023-05-05T04:48:34.917Z,84.48
2023-05-05T05:09:57.941Z,84.93
2023-05-05T05:12:34.079Z,84.42
2023-05-05T05:15:20.387Z,85.06
2023-05-05T05:20:43.033Z,84.56
2023-05-05T05:32:05.005Z,84.72
2023-05-05T05:34:33.075Z,84.80
2023-05-05T05:36:59.655Z,84.56
2023-05-05T05:39:26.306Z,84.63
2023-05-05T05:41:53.553Z,84.58
2023-05-05T05:44:20.203Z,84.39
2023-05-05T05:46:46.834Z,83.67
2023-05-05T05:49:14.595Z,83.19
2023-05-05T05:51:42.456Z,84.63
2023-05-05T05:54:15.492Z,83.96
2023-05-05T05:56:51.475Z,84.22
2023-05-05T05:59:23.682Z,83.92
2023-05-05T06:05:15.538Z,83.76
2023-05-05T06:07:45.566Z,82.43
2023-05-05T09:14:28.327Z,61.69
2023-05-05T09:24:07.783Z,61.83
2023-05-05T09:26:38.678Z,62.27
2023-05-05T09:29:54.630Z,62.41
2023-05-05T10:02:19.059Z,65.92
2023-05-05T10:05:07.969Z,66.13
2023-05-05T10:07:35.506Z,65.73
2023-05-05T10:10:04.904Z,65.72
2023-05-05T10:12:32.258Z,66.33
2023-05-05T10:15:03.896Z,65.36
2023-05-05T10:17:33.174Z,68.09
2023-05-05T10:20:01.390Z,70.88
2023-05-05T10:22:32.903Z,73.85
2023-05-05T10:25:10.108Z,74.33
2023-05-05T10:27:44.005Z,75.87
2023-05-05T10:30:25.603Z,76.37
2023-05-05T10:33:14.059Z,77.18
2023-05-05T10:36:03.778Z,76.63
2023-05-05T10:38:31.884Z,77.52
2023-05-05T10:41:02.928Z,78.45
2023-05-05T10:43:36.548Z,78.30
2023-05-05T10:46:03.319Z,78.66
2023-05-05T10:48:46.938Z,79.76
2023-05-05T10:51:43.507Z,80.79
2023-05-05T10:54:38.178Z,81.28
2023-05-05T10:57:12.337Z,81.71
2023-05-05T10:59:40.818Z,82.27
2023-05-05T11:02:23.571Z,82.87
2023-05-05T11:05:08.958Z,83.35
2023-05-05T11:07:39.537Z,83.97
2023-05-05T11:10:09.247Z,83.77
2023-05-05T11:13:00.436Z,83.94
2023-05-05T11:15:29.539Z,84.45
2023-05-05T11:17:57.686Z,84.18
2023-05-05T11:20:47.418Z,84.20
2023-05-05T11:23:20.254Z,85.25
2023-05-05T11:25:47.209Z,86.02
2023-05-05T11:28:17.336Z,86.36
2023-05-05T11:30:57.876Z,85.66
2023-05-05T11:33:28.550Z,86.15
2023-05-05T11:36:06.669Z,86.63
2023-05-05T11:38:49.823Z,87.62
2023-05-05T11:41:31.813Z,87.66
2023-05-05T11:44:18.995Z,87.31
2023-05-05T11:46:51.752Z,87.92
2023-05-05T11:49:30.761Z,88.32
2023-05-05T11:52:04.938Z,88.04
2023-05-05T11:54:32.222Z,87.80
2023-05-05T11:57:05.102Z,87.98
2023-05-05T11:59:32.754Z,88.08
2023-05-05T12:01:59.794Z,88.48
2023-05-05T12:04:26.560Z,88.46
2023-05-05T12:06:55.407Z,87.84
2023-05-05T12:09:22.989Z,87.80
2023-05-05T12:11:56.444Z,88.06
2023-05-05T12:14:27.629Z,88.25
2023-05-05T12:16:55.685Z,88.89
2023-05-05T12:19:22.327Z,88.03
2023-05-05T12:21:49.136Z,88.57
2023-05-05T12:24:17.022Z,88.59
2023-05-05T12:26:43.822Z,88.52
2023-05-05T12:29:10.988Z,88.09
2023-05-05T12:31:40.484Z,87.40
2023-05-05T12:34:08.841Z,88.02
2023-05-05T12:36:37.529Z,87.93
2023-05-05T12:39:05.413Z,88.53
2023-05-05T12:41:33.001Z,88.34
2023-05-05T12:44:01.546Z,88.86
2023-05-05T12:46:32.281Z,87.96
2023-05-05T12:49:05.503Z,88.75
2023-05-05T12:51:34.999Z,88.27
2023-05-05T12:54:03.007Z,88.42
2023-05-05T12:56:31.172Z,88.78
2023-05-05T12:59:00.213Z,89.13
2023-05-05T13:01:27.718Z,88.90
2023-05-05T13:04:09.141Z,88.36
2023-05-05T13:06:36.246Z,88.67
2023-05-05T13:09:03.154Z,89.13
2023-05-05T13:11:30.921Z,88.70
2023-05-05T13:13:57.669Z,89.01
2023-05-05T13:16:24.325Z,89.14
2023-05-05T13:18:51.311Z,89.17
2023-05-05T13:21:18.428Z,89.32
2023-05-05T13:24:21.244Z,88.64
2023-05-05T13:26:53.252Z,88.94
2023-05-05T13:29:19.904Z,88.53
2023-05-05T13:31:46.747Z,87.90
2023-05-05T13:34:13.571Z,88.40
2023-05-05T13:36:40.182Z,88.33
2023-05-05T13:39:08.168Z,88.82
2023-05-05T13:41:34.752Z,88.96
2023-05-05T13:44:01.407Z,88.92
2023-05-05T13:46:28.160Z,89.18
2023-05-05T13:48:56.767Z,88.98
2023-05-05T13:51:23.674Z,89.10
2023-05-05T13:53:50.312Z,87.95
2023-05-05T13:56:18.244Z,87.12
2023-05-05T13:58:44.995Z,87.28
2023-05-05T14:01:11.723Z,86.67
2023-05-05T14:03:39.665Z,87.08
2023-05-05T14:06:07.495Z,86.93
2023-05-05T14:08:34.137Z,86.09
2023-05-05T14:11:01.945Z,86.48
2023-05-05T14:13:28.736Z,87.38
2023-05-05T14:15:55.375Z,87.80
2023-05-05T14:18:22.838Z,87.08
2023-05-05T14:20:49.347Z,86.79
2023-05-05T14:23:15.813Z,86.71
2023-05-05T14:25:42.627Z,87.18
2023-05-05T14:28:09.151Z,87.15
2023-05-05T14:30:35.732Z,86.85
2023-05-05T14:33:02.527Z,86.85
2023-05-05T14:35:30.112Z,86.00
2023-05-05T14:37:56.748Z,86.87
2023-05-05T14:40:23.571Z,86.11
2023-05-05T14:42:50.900Z,85.93
2023-05-05T14:45:17.458Z,86.10
2023-05-05T14:47:44.016Z,86.06
2023-05-05T14:50:11.977Z,86.32
2023-05-05T14:52:40.169Z,86.26
2023-05-05T14:55:07.902Z,86.79
2023-05-05T14:57:34.827Z,86.96
2023-05-05T15:00:01.470Z,86.34
2023-05-05T15:02:28.225Z,85.11
2023-05-05T15:04:55.046Z,84.66
2023-05-05T15:07:23.710Z,84.51
2023-05-05T15:09:50.265Z,83.63
2023-05-05T15:12:16.772Z,84.78
2023-05-05T15:14:43.290Z,84.79
2023-05-05T15:17:09.811Z,83.91
2023-05-05T15:19:36.384Z,83.75
2023-05-05T15:22:03.046Z,84.65
2023-05-05T15:24:29.966Z,84.57
2023-05-05T15:26:56.902Z,85.00
2023-05-05T15:29:23.492Z,85.16
2023-05-05T15:31:50.046Z,85.16
2023-05-05T15:34:16.576Z,85.27
2023-05-05T15:36:43.044Z,84.73
2023-05-05T15:39:09.900Z,84.16
2023-05-05T15:41:36.488Z,83.12
2023-05-05T15:44:04.798Z,82.22
2023-05-05T15:46:33.460Z,81.51
2023-05-05T15:49:00.289Z,81.52
2023-05-05T15:51:27.375Z,82.25
2023-05-05T15:53:54.083Z,81.66
2023-05-05T15:56:20.715Z,82.33
2023-05-05T15:58:47.241Z,82.32
2023-05-05T16:01:13.776Z,82.30
2023-05-05T16:03:40.464Z,83.00
2023-05-05T16:06:07.517Z,82.49
2023-05-05T16:08:34.022Z,81.99
2023-05-05T16:11:01.324Z,81.48
2023-05-05T16:13:30.133Z,82.50
2023-05-05T16:15:56.643Z,83.05
2023-05-05T16:18:23.618Z,82.21
2023-05-05T16:20:50.183Z,80.71
2023-05-05T16:23:17.810Z,80.01
2023-05-05T16:25:45.824Z,79.68
2023-05-05T16:28:23.574Z,79.30
2023-05-05T16:30:50.236Z,80.80
2023-05-05T16:33:19.652Z,79.33
2023-05-05T16:35:46.388Z,76.54
2023-05-05T16:38:13.531Z,77.63
2023-05-05T16:40:40.683Z,77.29
2023-05-05T16:43:07.448Z,78.84
2023-05-05T16:45:43.633Z,79.99
2023-05-05T16:48:10.448Z,81.32
2023-05-05T16:50:37.123Z,80.43
2023-05-05T16:53:03.824Z,80.63
2023-05-05T16:55:30.548Z,81.55
2023-05-05T16:57:58.259Z,80.07
2023-05-05T17:00:24.877Z,80.85
2023-05-05T17:02:51.483Z,80.49
2023-05-05T17:05:18.093Z,81.49
2023-05-05T17:07:45.764Z,81.91
2023-05-05T17:10:12.350Z,82.53
2023-05-05T17:12:38.987Z,82.21
2023-05-05T17:15:06.598Z,81.97
2023-05-05T17:17:33.355Z,81.40
2023-05-05T17:20:00.029Z,82.08
2023-05-05T17:22:27.140Z,82.35
2023-05-05T17:24:53.799Z,82.85
2023-05-05T17:27:20.436Z,82.92
2023-05-05T17:29:48.409Z,83.01
2023-05-05T17:32:14.975Z,83.47
2023-05-05T17:34:41.554Z,84.07
2023-05-05T17:37:09.278Z,84.12
2023-05-05T17:39:36.947Z,84.13
2023-05-05T17:42:04.209Z,83.64
2023-05-05T17:44:32.599Z,83.65
2023-05-05T17:47:08.579Z,84.24
2023-05-05T17:49:35.273Z,84.39
2023-05-05T17:52:02.446Z,84.25
2023-05-05T17:54:31.121Z,84.33
2023-05-05T17:56:57.679Z,84.74
2023-05-05T17:59:24.243Z,85.23
2023-05-05T18:01:50.912Z,85.69
2023-05-05T18:04:17.506Z,86.40
2023-05-05T18:06:44.581Z,86.55
